createdAt,value
2022-08-09T00:00:08.065Z,20.25
2022-08-09T00:02:47.370Z,20.21
2022-08-09T00:06:18.464Z,20.00
2022-08-09T00:08:10.158Z,20.09
2022-08-09T00:10:37.989Z,20.05
2022-08-09T00:13:06.012Z,20.01
2022-08-09T00:15:59.091Z,19.97
2022-08-09T00:18:35.810Z,19.93
2022-08-09T00:21:08.802Z,19.88
2022-08-09T00:23:57.564Z,19.84
2022-08-09T00:26:32.334Z,19.79
2022-08-09T00:29:03.866Z,19.73
2022-08-09T00:31:59.548Z,19.68
2022-08-09T00:34:26.187Z,19.65
2022-08-09T00:36:52.792Z,19.59
2022-08-09T00:40:13.568Z,19.55
2022-08-09T00:44:14.425Z,19.53
2022-08-09T00:44:53.590Z,19.51
2022-08-09T00:47:21.219Z,19.46
2022-08-09T00:49:52.504Z,19.44
2022-08-09T00:52:22.627Z,19.43
2022-08-09T00:55:01.460Z,19.40
2022-08-09T00:57:34.389Z,19.17
2022-08-09T01:00:22.129Z,19.10
2022-08-09T01:02:56.290Z,19.30
2022-08-09T01:05:51.036Z,19.29
2022-08-09T01:08:52.937Z,19.25
2022-08-09T01:11:27.277Z,19.25
2022-08-09T01:14:07.308Z,18.98
2022-08-09T01:16:49.692Z,19.19
2022-08-09T01:19:42.348Z,19.16
2022-08-09T01:22:54.697Z,19.11
2022-08-09T01:25:32.805Z,18.90
2022-08-09T01:28:06.023Z,18.83
2022-08-09T01:30:51.236Z,18.95
2022-08-09T01:33:21.256Z,18.93
2022-08-09T01:36:02.945Z,18.87
2022-08-09T01:38:34.489Z,18.87
2022-08-09T01:41:07.700Z,18.84
2022-08-09T01:43:51.279Z,18.61
2022-08-09T01:46:24.930Z,18.61
2022-08-09T01:49:10.531Z,18.73
2022-08-09T01:51:53.948Z,18.65
2022-08-09T01:54:36.978Z,18.64
2022-08-09T01:57:16.903Z,18.60
2022-08-09T01:59:51.476Z,18.58
2022-08-09T02:02:21.948Z,18.54
2022-08-09T02:04:51.004Z,18.52
2022-08-09T02:08:38.848Z,18.28
2022-08-09T02:10:13.370Z,18.28
2022-08-09T02:12:43.900Z,18.23
2022-08-09T02:15:16.924Z,18.42
2022-08-09T02:18:00.874Z,18.32
2022-08-09T02:20:40.597Z,18.16
2022-08-09T02:23:14.006Z,18.34
2022-08-09T02:25:52.744Z,18.28
2022-08-09T02:28:33.825Z,18.19
2022-08-09T02:31:07.724Z,18.15
2022-08-09T02:34:06.480Z,18.02
2022-08-09T02:36:32.483Z,17.99
2022-08-09T02:39:04.341Z,17.71
2022-08-09T02:41:52.876Z,17.81
2022-08-09T02:44:30.273Z,17.73
2022-08-09T02:47:00.045Z,17.68
2022-08-09T02:49:40.928Z,17.62
2022-08-09T02:52:11.443Z,17.56
2022-08-09T02:54:54.305Z,17.53
2022-08-09T02:57:24.003Z,17.47
2022-08-09T03:00:20.645Z,17.43
2022-08-09T03:02:58.564Z,17.35
2022-08-09T03:05:28.509Z,17.23
2022-08-09T03:07:55.764Z,17.19
2022-08-09T03:10:24.113Z,17.15
2022-08-09T03:12:52.067Z,17.11
2022-08-09T03:15:19.247Z,17.08
2022-08-09T03:17:47.177Z,17.05
2022-08-09T03:20:25.970Z,17.01
2022-08-09T03:22:58.291Z,16.76
2022-08-09T03:26:03.124Z,16.94
2022-08-09T03:28:18.272Z,16.93
2022-08-09T03:30:49.106Z,16.82
2022-08-09T03:33:19.596Z,16.88
2022-08-09T03:36:13.202Z,16.79
2022-08-09T03:38:42.176Z,16.71
2022-08-09T03:41:15.191Z,16.78
2022-08-09T03:44:02.756Z,16.77
2022-08-09T03:46:31.245Z,16.72
2022-08-09T03:49:03.926Z,16.48
2022-08-09T03:51:55.587Z,16.71
2022-08-09T03:54:29.569Z,16.68
2022-08-09T03:56:59.145Z,16.66
2022-08-09T03:59:42.675Z,16.60
2022-08-09T04:02:14.183Z,16.56
2022-08-09T04:04:45.662Z,16.53
2022-08-09T04:07:12.953Z,16.52
2022-08-09T04:09:47.520Z,16.49
2022-08-09T04:12:30.800Z,16.43
2022-08-09T04:15:02.161Z,16.39
2022-08-09T04:17:38.199Z,16.35
2022-08-09T04:20:07.244Z,16.32
2022-08-09T04:22:34.133Z,16.30
2022-08-09T04:25:01.631Z,16.22
2022-08-09T04:27:29.713Z,16.23
2022-08-09T04:29:59.445Z,16.26
2022-08-09T04:32:33.699Z,16.24
2022-08-09T04:35:01.345Z,16.24
2022-08-09T04:37:45.901Z,16.20
2022-08-09T04:40:28.875Z,16.22
2022-08-09T04:43:01.091Z,16.22
2022-08-09T04:45:30.773Z,16.22
2022-08-09T04:47:59.214Z,16.21
2022-08-09T04:50:31.856Z,16.16
2022-08-09T04:53:02.311Z,16.17
2022-08-09T04:55:41.058Z,16.14
2022-08-09T04:58:15.346Z,16.05
2022-08-09T05:00:43.092Z,15.97
2022-08-09T05:03:30.214Z,16.10
2022-08-09T05:06:06.696Z,16.07
2022-08-09T05:08:34.947Z,16.08
2022-08-09T05:11:02.771Z,16.08
2022-08-09T05:13:32.981Z,16.03
2022-08-09T05:16:00.516Z,16.07
2022-08-09T05:18:37.691Z,16.06
2022-08-09T05:21:24.321Z,16.11
2022-08-09T05:23:59.760Z,16.13
2022-08-09T05:26:37.365Z,16.13
2022-08-09T05:29:17.674Z,16.17
2022-08-09T05:31:47.539Z,16.20
2022-08-09T05:34:23.115Z,16.23
2022-08-09T05:36:57.747Z,16.26
2022-08-09T05:39:29.006Z,16.28
2022-08-09T05:41:57.848Z,16.33
2022-08-09T05:44:32.861Z,16.37
2022-08-09T05:47:01.320Z,16.39
2022-08-09T05:50:05.848Z,16.43
2022-08-09T05:52:18.488Z,16.50
2022-08-09T05:54:46.190Z,16.53
2022-08-09T05:57:17.502Z,16.58
2022-08-09T05:59:46.251Z,16.58
2022-08-09T06:02:17.119Z,16.69
2022-08-09T06:04:46.243Z,16.75
2022-08-09T06:07:21.300Z,16.78
2022-08-09T06:10:01.811Z,16.88
2022-08-09T06:12:29.828Z,16.94
2022-08-09T06:15:00.649Z,16.98
2022-08-09T06:17:27.665Z,17.05
2022-08-09T06:20:07.283Z,17.14
2022-08-09T06:22:34.545Z,17.20
2022-08-09T06:25:01.376Z,17.24
2022-08-09T06:27:41.411Z,17.37
2022-08-09T06:30:10.089Z,17.43
2022-08-09T06:32:59.135Z,17.50
2022-08-09T06:35:35.766Z,17.59
2022-08-09T06:38:10.005Z,17.63
2022-08-09T06:40:38.754Z,17.73
2022-08-09T06:43:10.356Z,17.84
2022-08-09T06:46:06.240Z,17.84
2022-08-09T06:48:30.106Z,17.98
2022-08-09T06:50:58.938Z,18.05
2022-08-09T06:53:26.348Z,18.21
2022-08-09T06:55:53.176Z,18.23
2022-08-09T07:00:52.759Z,18.36
2022-08-09T07:01:08.008Z,18.38
2022-08-09T07:03:39.654Z,18.55
2022-08-09T07:06:18.995Z,18.59
2022-08-09T07:08:46.767Z,18.72
2022-08-09T07:11:17.620Z,18.82
2022-08-09T07:14:05.703Z,18.90
2022-08-09T07:16:41.668Z,19.06
2022-08-09T07:19:23.023Z,19.19
2022-08-09T07:21:57.244Z,19.31
2022-08-09T07:24:32.602Z,19.42
2022-08-09T07:27:21.051Z,19.55
2022-08-09T07:29:57.080Z,19.69
2022-08-09T07:32:24.015Z,19.82
2022-08-09T07:35:02.671Z,19.93
2022-08-09T07:37:44.016Z,20.00
2022-08-09T07:40:18.783Z,19.98
2022-08-09T07:42:58.993Z,20.30
2022-08-09T07:45:37.686Z,20.43
2022-08-09T07:48:25.869Z,20.56
2022-08-09T07:51:03.265Z,20.72
2022-08-09T07:54:07.168Z,20.85
2022-08-09T07:56:28.450Z,21.05
2022-08-09T07:58:59.284Z,21.20
2022-08-09T08:01:33.222Z,21.33
2022-08-09T08:04:01.797Z,21.47
2022-08-09T08:06:32.009Z,21.61
2022-08-09T08:09:03.881Z,21.69
2022-08-09T08:12:11.989Z,21.86
2022-08-09T08:14:21.088Z,21.96
2022-08-09T08:17:00.620Z,22.12
2022-08-09T08:19:31.048Z,22.21
2022-08-09T08:21:58.096Z,22.29
2022-08-09T08:24:25.246Z,22.41
2022-08-09T08:27:06.614Z,22.54
2022-08-09T08:29:48.487Z,22.68
2022-08-09T08:32:24.321Z,22.74
2022-08-09T08:34:58.950Z,22.90
2022-08-09T08:37:41.155Z,23.04
2022-08-09T08:40:16.350Z,23.19
2022-08-09T08:42:47.359Z,23.29
2022-08-09T08:45:17.003Z,23.34
2022-08-09T08:48:05.501Z,23.32
2022-08-09T08:50:32.290Z,23.61
2022-08-09T08:53:00.762Z,23.71
2022-08-09T08:55:28.185Z,23.85
2022-08-09T08:57:57.126Z,23.95
2022-08-09T09:00:27.547Z,24.04
2022-08-09T09:03:03.030Z,24.07
2022-08-09T09:05:58.415Z,24.17
2022-08-09T09:08:29.722Z,24.31
2022-08-09T09:11:01.301Z,24.47
2022-08-09T09:13:41.726Z,24.64
2022-08-09T09:16:15.472Z,24.80
2022-08-09T09:18:48.044Z,24.95
2022-08-09T09:21:26.155Z,25.10
2022-08-09T09:23:58.441Z,25.26
2022-08-09T09:26:32.145Z,25.45
2022-08-09T09:29:10.351Z,25.56
2022-08-09T09:32:05.763Z,25.44
2022-08-09T09:34:37.267Z,25.74
2022-08-09T09:37:05.819Z,25.95
2022-08-09T09:39:56.778Z,26.14
2022-08-09T09:42:26.309Z,26.49
2022-08-09T09:44:57.701Z,26.84
2022-08-09T09:47:28.348Z,27.38
2022-08-09T09:50:14.324Z,27.93
2022-08-09T09:52:53.764Z,28.49
2022-08-09T09:55:28.840Z,29.03
2022-08-09T09:58:16.385Z,29.22
2022-08-09T10:00:55.946Z,29.85
2022-08-09T10:03:56.202Z,30.14
2022-08-09T10:06:26.271Z,30.34
2022-08-09T10:09:02.951Z,30.39
2022-08-09T10:11:59.862Z,30.64
2022-08-09T10:14:31.879Z,30.89
2022-08-09T10:17:39.580Z,30.94
2022-08-09T10:19:56.933Z,31.41
2022-08-09T10:22:35.541Z,31.77
2022-08-09T10:25:12.172Z,31.96
2022-08-09T10:27:56.767Z,32.16
2022-08-09T10:34:07.862Z,32.57
2022-08-09T10:36:02.532Z,32.79
2022-08-09T10:38:39.634Z,33.03
2022-08-09T10:41:17.960Z,33.25
2022-08-09T10:43:58.634Z,33.24
2022-08-09T10:48:12.459Z,33.47
2022-08-09T10:50:30.766Z,33.78
2022-08-09T10:53:26.874Z,33.97
2022-08-09T10:56:17.629Z,34.16
2022-08-09T10:58:51.460Z,34.31
2022-08-09T11:03:13.480Z,34.51
2022-08-09T11:04:35.457Z,34.58
2022-08-09T11:07:02.020Z,34.60
2022-08-09T11:09:37.479Z,34.61
2022-08-09T11:12:20.404Z,34.68
2022-08-09T11:14:57.345Z,34.74
2022-08-09T11:17:23.997Z,34.83
2022-08-09T11:20:10.716Z,34.87
2022-08-09T11:22:58.400Z,34.83
2022-08-09T11:25:45.016Z,35.02
2022-08-09T11:28:34.362Z,35.12
2022-08-09T11:31:39.459Z,35.27
2022-08-09T11:34:18.544Z,35.26
2022-08-09T11:36:47.957Z,35.14
2022-08-09T11:39:15.459Z,34.99
2022-08-09T11:41:43.445Z,35.10
2022-08-09T11:44:12.018Z,35.14
2022-08-09T11:46:58.177Z,34.98
2022-08-09T11:50:56.623Z,35.10
2022-08-09T11:53:15.592Z,35.06
2022-08-09T11:55:52.036Z,34.95
2022-08-09T11:58:19.811Z,34.89
2022-08-09T12:01:01.255Z,34.85
2022-08-09T12:03:50.433Z,34.84
2022-08-09T12:06:26.512Z,34.73
2022-08-09T12:08:56.176Z,34.51
2022-08-09T12:11:26.252Z,34.61
2022-08-09T12:14:07.672Z,34.38
2022-08-09T12:16:41.047Z,34.32
2022-08-09T12:19:12.239Z,34.04
2022-08-09T12:21:50.212Z,33.74
2022-08-09T12:24:24.923Z,33.51
2022-08-09T12:28:59.205Z,33.28
2022-08-09T12:30:01.744Z,33.10
2022-08-09T12:32:40.679Z,32.91
2022-08-09T12:35:11.057Z,32.75
2022-08-09T12:37:50.681Z,32.55
2022-08-09T12:40:21.260Z,32.34
2022-08-09T12:42:50.805Z,32.15
2022-08-09T12:45:33.796Z,32.03
2022-08-09T12:48:07.874Z,31.83
2022-08-09T12:50:38.710Z,31.51
2022-08-09T12:53:38.772Z,31.19
2022-08-09T12:56:37.051Z,31.07
2022-08-09T12:59:10.393Z,30.98
2022-08-09T13:01:46.813Z,30.90
2022-08-09T13:04:37.272Z,30.81
2022-08-09T13:07:14.577Z,30.73
2022-08-09T13:09:45.445Z,30.72
2022-08-09T13:12:22.187Z,30.72
2022-08-09T13:14:53.686Z,30.73
2022-08-09T13:17:43.757Z,30.75
2022-08-09T13:20:13.311Z,30.74
2022-08-09T13:23:01.235Z,30.66
2022-08-09T13:25:54.693Z,30.70
2022-08-09T13:28:34.066Z,30.87
2022-08-09T13:32:15.663Z,30.86
2022-08-09T13:33:57.999Z,30.91
2022-08-09T13:36:41.306Z,30.99
2022-08-09T13:39:34.279Z,31.09
2022-08-09T13:42:11.898Z,31.00
2022-08-09T13:44:42.045Z,31.14
2022-08-09T13:47:25.513Z,31.29
2022-08-09T13:49:57.799Z,31.45
2022-08-09T13:52:27.964Z,31.62
2022-08-09T13:54:58.894Z,31.84
2022-08-09T13:57:36.680Z,31.85
2022-08-09T14:00:17.877Z,31.85
2022-08-09T14:03:02.279Z,32.22
2022-08-09T14:05:58.557Z,32.42
2022-08-09T14:08:18.610Z,32.73
2022-08-09T14:10:52.070Z,33.02
2022-08-09T14:14:15.566Z,33.37
2022-08-09T14:16:15.105Z,33.77
2022-08-09T14:18:49.118Z,33.90
2022-08-09T14:21:23.325Z,34.07
2022-08-09T14:23:53.621Z,34.20
2022-08-09T14:26:21.037Z,34.26
2022-08-09T14:28:47.826Z,34.34
2022-08-09T14:31:14.390Z,34.53
2022-08-09T14:33:41.990Z,34.66
2022-08-09T14:36:20.861Z,34.91
2022-08-09T14:38:52.531Z,35.27
2022-08-09T14:41:34.540Z,35.72
2022-08-09T14:44:07.208Z,36.11
2022-08-09T14:46:58.475Z,36.29
2022-08-09T14:49:24.460Z,36.55
2022-08-09T14:51:51.391Z,36.93
2022-08-09T14:54:27.666Z,37.35
2022-08-09T14:56:58.690Z,37.64
2022-08-09T14:59:27.029Z,37.93
2022-08-09T15:01:54.204Z,38.09
2022-08-09T15:04:23.624Z,38.22
2022-08-09T15:06:51.991Z,38.39
2022-08-09T15:10:03.855Z,38.45
2022-08-09T15:12:07.901Z,38.32
2022-08-09T15:14:38.590Z,38.05
2022-08-09T15:17:06.499Z,37.71
2022-08-09T15:19:35.949Z,37.49
2022-08-09T15:22:03.446Z,37.53
2022-08-09T15:24:30.489Z,37.63
2022-08-09T15:26:57.747Z,37.64
2022-08-09T15:30:48.901Z,37.58
2022-08-09T15:32:29.691Z,37.43
2022-08-09T15:34:57.910Z,37.33
2022-08-09T15:37:24.406Z,37.66
2022-08-09T15:40:20.105Z,37.94
2022-08-09T15:42:48.313Z,38.59
2022-08-09T15:45:21.413Z,39.07
2022-08-09T15:48:02.561Z,39.49
2022-08-09T15:50:34.516Z,39.73
2022-08-09T15:53:17.852Z,39.61
2022-08-09T15:56:04.618Z,39.39
2022-08-09T15:58:39.638Z,39.30
2022-08-09T16:01:06.265Z,39.04
2022-08-09T16:03:38.548Z,38.86
2022-08-09T16:06:29.254Z,38.62
2022-08-09T16:08:55.736Z,38.29
2022-08-09T16:11:22.256Z,38.27
2022-08-09T16:14:04.304Z,38.64
2022-08-09T16:16:33.492Z,39.15
2022-08-09T16:19:01.379Z,39.53
2022-08-09T16:21:31.767Z,39.76
2022-08-09T16:24:04.701Z,40.12
2022-08-09T16:26:35.485Z,40.55
2022-08-09T16:29:11.380Z,40.97
2022-08-09T16:32:19.375Z,41.16
2022-08-09T16:34:56.010Z,41.23
2022-08-09T16:37:20.175Z,41.58
2022-08-09T16:40:08.122Z,41.88
2022-08-09T16:42:35.251Z,42.17
2022-08-09T16:45:02.710Z,42.38
2022-08-09T16:48:41.611Z,42.69
2022-08-09T16:50:28.736Z,42.67
2022-08-09T16:52:57.281Z,42.68
2022-08-09T16:55:24.392Z,42.71
2022-08-09T16:58:10.048Z,42.81
2022-08-09T17:00:42.878Z,42.94
2022-08-09T17:03:22.031Z,42.97
2022-08-09T17:06:02.851Z,42.87
2022-08-09T17:08:46.217Z,42.77
2022-08-09T17:11:40.742Z,42.49
2022-08-09T17:14:25.661Z,41.74
2022-08-09T17:17:02.197Z,40.87
2022-08-09T17:20:06.030Z,40.15
2022-08-09T17:22:23.642Z,39.51
2022-08-09T17:24:55.512Z,39.08
2022-08-09T17:27:23.002Z,38.58
2022-08-09T17:29:50.639Z,38.11
2022-08-09T17:32:19.225Z,37.66
2022-08-09T17:35:04.297Z,37.16
2022-08-09T17:38:11.819Z,36.62
2022-08-09T17:40:20.877Z,36.16
2022-08-09T17:42:55.498Z,35.77
2022-08-09T17:45:37.414Z,35.44
2022-08-09T17:48:12.509Z,34.98
2022-08-09T17:50:39.101Z,34.49
2022-08-09T17:53:19.649Z,34.00
2022-08-09T17:55:51.999Z,33.58
2022-08-09T17:58:24.333Z,33.30
2022-08-09T18:00:54.307Z,33.02
2022-08-09T18:03:24.390Z,32.70
2022-08-09T18:05:53.336Z,32.43
2022-08-09T18:08:21.912Z,32.20
2022-08-09T18:11:00.805Z,31.94
2022-08-09T18:13:54.436Z,31.58
2022-08-09T18:16:29.180Z,31.33
2022-08-09T18:18:59.505Z,30.90
2022-08-09T18:21:31.574Z,30.60
2022-08-09T18:24:10.444Z,30.30
2022-08-09T18:26:46.941Z,30.02
2022-08-09T18:30:38.343Z,29.80
2022-08-09T18:32:03.471Z,29.58
2022-08-09T18:34:31.845Z,29.23
2022-08-09T18:36:58.657Z,29.04
2022-08-09T18:39:25.374Z,28.75
2022-08-09T18:41:53.942Z,28.63
2022-08-09T18:44:25.688Z,28.45
2022-08-09T18:47:06.283Z,28.28
2022-08-09T18:49:43.466Z,28.17
2022-08-09T18:52:14.327Z,28.08
2022-08-09T18:54:52.635Z,27.97
2022-08-09T18:57:22.342Z,27.85
2022-08-09T18:59:55.640Z,27.68
2022-08-09T19:02:30.771Z,27.50
2022-08-09T19:05:19.994Z,27.40
2022-08-09T19:08:03.919Z,27.26
2022-08-09T19:10:39.247Z,27.14
2022-08-09T19:13:22.614Z,27.07
2022-08-09T19:15:52.266Z,26.91
2022-08-09T19:18:35.799Z,26.84
2022-08-09T19:21:09.616Z,26.74
2022-08-09T19:24:37.051Z,26.58
2022-08-09T19:26:29.430Z,26.44
2022-08-09T19:29:15.274Z,26.36
2022-08-09T19:31:46.505Z,26.23
2022-08-09T19:34:22.136Z,26.17
2022-08-09T19:36:55.650Z,26.04
2022-08-09T19:39:43.553Z,25.96
2022-08-09T19:42:14.884Z,25.85
2022-08-09T19:44:49.514Z,25.71
2022-08-09T19:47:22.891Z,25.58
2022-08-09T19:50:10.140Z,25.43
2022-08-09T19:52:38.217Z,25.36
2022-08-09T19:55:16.684Z,25.28
2022-08-09T19:57:46.134Z,25.20
2022-08-09T20:00:15.286Z,25.13
2022-08-09T20:04:16.995Z,25.11
2022-08-09T20:05:29.333Z,25.01
2022-08-09T20:08:12.433Z,24.93
2022-08-09T20:10:42.782Z,24.86
2022-08-09T20:13:10.922Z,24.81
2022-08-09T20:16:37.555Z,24.76
2022-08-09T20:18:27.825Z,24.67
2022-08-09T20:20:55.457Z,24.43
2022-08-09T20:23:23.704Z,24.55
2022-08-09T20:25:52.090Z,24.48
2022-08-09T20:28:27.997Z,24.41
2022-08-09T20:31:05.233Z,24.32
2022-08-09T20:33:38.879Z,24.21
2022-08-09T20:36:09.032Z,24.10
2022-08-09T20:39:00.269Z,23.95
2022-08-09T20:41:35.301Z,23.87
2022-08-09T20:44:06.861Z,23.80
2022-08-09T20:46:43.048Z,23.73
2022-08-09T20:49:15.996Z,23.68
2022-08-09T20:51:43.854Z,23.63
2022-08-09T20:54:16.690Z,23.58
2022-08-09T20:56:49.384Z,23.49
2022-08-09T20:59:25.096Z,23.43
2022-08-09T21:02:07.290Z,23.36
2022-08-09T21:05:51.070Z,23.29
2022-08-09T21:07:20.400Z,23.24
2022-08-09T21:09:58.506Z,23.22
2022-08-09T21:15:17.848Z,23.11
2022-08-09T21:18:22.559Z,23.03
2022-08-09T21:20:37.144Z,22.90
2022-08-09T21:23:09.174Z,22.84
2022-08-09T21:25:38.023Z,22.79
2022-08-09T21:28:07.442Z,22.75
2022-08-09T21:30:40.297Z,22.66
2022-08-09T21:33:08.135Z,22.62
2022-08-09T21:35:40.833Z,22.47
2022-08-09T21:38:18.812Z,22.45
2022-08-09T21:40:58.874Z,22.37
2022-08-09T21:43:56.670Z,22.28
2022-08-09T21:46:12.457Z,22.00
2022-08-09T21:48:42.675Z,22.16
2022-08-09T21:51:22.485Z,22.11
2022-08-09T21:53:54.229Z,22.05
2022-08-09T21:56:43.103Z,21.98
2022-08-09T21:59:07.743Z,21.94
2022-08-09T22:01:59.281Z,21.89
2022-08-09T22:04:20.856Z,21.82
2022-08-09T22:07:02.109Z,21.75
2022-08-09T22:09:31.386Z,21.66
2022-08-09T22:12:18.111Z,21.61
2022-08-09T22:14:46.587Z,21.53
2022-08-09T22:17:13.123Z,21.47
2022-08-09T22:19:58.648Z,21.34
2022-08-09T22:22:26.836Z,21.32
2022-08-09T22:26:05.377Z,21.22
2022-08-09T22:27:40.513Z,21.14
2022-08-09T22:30:09.507Z,21.12
2022-08-09T22:32:36.125Z,21.05
2022-08-09T22:36:00.877Z,20.95
2022-08-09T22:38:07.090Z,20.88
2022-08-09T22:40:35.002Z,20.88
2022-08-09T22:43:08.455Z,20.81
2022-08-09T22:48:11.473Z,20.78
2022-08-09T22:48:35.352Z,20.71
2022-08-09T22:51:10.632Z,20.66
2022-08-09T22:53:58.078Z,20.62
2022-08-09T22:56:31.473Z,20.54
2022-08-09T22:59:05.409Z,20.53
2022-08-09T23:01:32.961Z,20.48
2022-08-09T23:04:04.112Z,20.40
2022-08-09T23:06:35.357Z,20.36
2022-08-09T23:09:03.514Z,20.30
2022-08-09T23:11:30.060Z,20.25
2022-08-09T23:13:56.815Z,20.20
2022-08-09T23:16:23.392Z,20.15
2022-08-09T23:18:49.920Z,20.09
2022-08-09T23:21:25.097Z,20.03
2022-08-09T23:24:04.949Z,19.99
2022-08-09T23:26:36.920Z,19.93
2022-08-09T23:29:08.502Z,19.89
2022-08-09T23:31:35.176Z,19.85
2022-08-09T23:34:03.707Z,19.79
2022-08-09T23:36:30.532Z,19.75
2022-08-09T23:38:57.105Z,19.71
2022-08-09T23:41:28.351Z,19.66
2022-08-09T23:44:00.984Z,19.42
2022-08-09T23:46:29.159Z,19.56
2022-08-09T23:48:56.802Z,19.49
2022-08-09T23:51:23.515Z,19.46
2022-08-09T23:53:52.350Z,19.43
2022-08-09T23:56:21.867Z,19.41
2022-08-09T23:59:06.259Z,19.36
